Time,TemperatureF,DewpointF,PressureIn,WindDirection,WindDirectionDegrees,WindSpeedMPH,WindSpeedGustMPH,Humidity,HourlyPrecipIn,Conditions,Clouds,dailyrainin,SoftwareType,DateUTC
2013-02-22 00:00:00,28.2,21.4,30.28,North,6,22.0,32.0,75,0.00,,,0.00,meteohub,2013-02-22 05:00:00,
2013-02-22 00:05:00,28.2,22.3,30.28,NNW,342,19.0,31.0,78,0.00,,,0.00,meteohub,2013-02-22 05:05:00,
2013-02-22 00:10:00,28.2,21.4,30.28,NNW,342,21.0,30.0,75,0.00,,,0.00,meteohub,2013-02-22 05:10:00,
2013-02-22 00:15:00,28.4,22.5,30.29,NNW,336,23.0,30.0,78,0.00,,,0.00,meteohub,2013-02-22 05:15:00,
2013-02-22 00:20:00,28.4,22.1,30.29,NNW,335,15.0,30.0,77,0.00,,,0.00,meteohub,2013-02-22 05:20:00,
2013-02-22 00:25:00,28.2,21.9,30.29,NNW,331,25.0,30.0,77,0.00,,,0.00,meteohub,2013-02-22 05:25:00,
2013-02-22 00:30:00,28.2,21.9,30.30,NW,321,14.0,30.0,77,0.00,,,0.00,meteohub,2013-02-22 05:30:00,
2013-02-22 00:35:00,28.2,21.6,30.30,NNW,338,27.0,29.0,76,0.00,,,0.00,meteohub,2013-02-22 05:35:00,
2013-02-22 00:40:00,28.0,21.4,30.30,North,356,18.0,31.0,76,0.00,,,0.00,meteohub,2013-02-22 05:40:00,
2013-02-22 00:45:00,28.0,21.4,30.30,NE,34,21.0,31.0,76,0.00,,,0.00,meteohub,2013-02-22 05:45:00,
2013-02-22 00:50:00,28.0,21.4,30.30,NNW,335,14.0,30.0,76,0.00,,,0.00,meteohub,2013-02-22 05:50:00,
2013-02-22 00:55:00,28.0,22.1,30.30,NNW,335,21.0,29.0,78,0.00,,,0.00,meteohub,2013-02-22 05:55:00,
2013-02-22 01:00:00,28.0,21.4,30.30,NNE,13,20.0,28.0,76,0.00,,,0.00,meteohub,2013-02-22 06:00:00,
2013-02-22 01:05:00,28.2,22.3,30.30,NNW,338,19.0,29.0,78,0.00,,,0.00,meteohub,2013-02-22 06:05:00,
2013-02-22 01:10:00,28.2,21.9,30.29,NNE,33,22.0,29.0,77,0.00,,,0.00,meteohub,2013-02-22 06:10:00,
2013-02-22 01:15:00,28.2,21.9,30.29,NNE,27,24.0,29.0,77,0.00,,,0.00,meteohub,2013-02-22 06:15:00,
2013-02-22 01:20:00,28.2,21.9,30.29,North,6,20.0,29.0,77,0.00,,,0.00,meteohub,2013-02-22 06:20:00,
2013-02-22 01:25:00,28.2,21.9,30.29,North,9,21.0,29.0,77,0.00,,,0.00,meteohub,2013-02-22 06:25:00,
2013-02-22 01:30:00,28.2,21.9,30.29,NNE,23,16.0,29.0,77,0.00,,,0.00,meteohub,2013-02-22 06:30:00,
2013-02-22 01:35:00,28.2,22.3,30.29,NNW,346,17.0,24.0,78,0.00,,,0.00,meteohub,2013-02-22 06:35:00,
2013-02-22 01:40:00,28.2,21.6,30.29,North,8,17.0,24.0,76,0.00,,,0.00,meteohub,2013-02-22 06:40:00,
2013-02-22 01:45:00,28.2,21.6,30.28,NNE,26,20.0,25.0,76,0.00,,,0.00,meteohub,2013-02-22 06:45:00,
2013-02-22 01:50:00,28.2,21.6,30.28,North,8,23.0,25.0,76,0.00,,,0.00,meteohub,2013-02-22 06:50:00,
2013-02-22 01:55:00,28.2,21.6,30.28,North,351,21.0,26.0,76,0.00,,,0.00,meteohub,2013-02-22 06:55:00,
2013-02-22 02:00:00,28.2,21.6,30.28,NNW,332,23.0,27.0,76,0.00,,,0.00,meteohub,2013-02-22 07:00:00,
2013-02-22 02:05:00,28.2,21.9,30.28,WNW,297,17.0,30.0,77,0.00,,,0.00,meteohub,2013-02-22 07:05:00,
2013-02-22 02:10:00,28.0,21.4,30.28,North,9,23.0,30.0,76,0.00,,,0.00,meteohub,2013-02-22 07:10:00,
2013-02-22 02:15:00,27.9,21.9,30.28,North,10,21.0,27.0,78,0.00,,,0.00,meteohub,2013-02-22 07:15:00,
2013-02-22 02:20:00,27.7,21.4,30.29,NNE,20,18.0,27.0,77,0.00,,,0.00,meteohub,2013-02-22 07:20:00,
2013-02-22 02:25:00,27.3,21.0,30.29,NNW,339,19.0,31.0,77,0.00,,,0.00,meteohub,2013-02-22 07:25:00,
2013-02-22 02:30:00,27.7,22.1,30.29,North,1,23.0,31.0,79,0.00,,,0.00,meteohub,2013-02-22 07:30:00,
2013-02-22 02:35:00,27.5,21.2,30.29,NW,324,14.0,31.0,77,0.00,,,0.00,meteohub,2013-02-22 07:35:00,
2013-02-22 02:40:00,27.5,21.9,30.29,North,4,21.0,29.0,79,0.00,,,0.00,meteohub,2013-02-22 07:40:00,
2013-02-22 02:45:00,27.5,21.2,30.29,NNE,26,17.0,29.0,77,0.00,,,0.00,meteohub,2013-02-22 07:45:00,
2013-02-22 02:51:00,27.7,22.1,30.30,North,1,20.0,29.0,79,0.00,,,0.00,meteohub,2013-02-22 07:51:00,
2013-02-22 02:56:00,27.9,22.3,30.30,NNE,24,20.0,27.0,79,0.00,,,0.00,meteohub,2013-02-22 07:56:00,
2013-02-22 03:01:00,27.9,21.9,30.30,North,10,15.0,24.0,78,0.00,,,0.00,meteohub,2013-02-22 08:01:00,
2013-02-22 03:06:00,28.0,22.1,30.30,North,8,19.0,24.0,78,0.00,,,0.00,meteohub,2013-02-22 08:06:00,
2013-02-22 03:11:00,28.2,22.3,30.29,NE,35,17.0,24.0,78,0.00,,,0.00,meteohub,2013-02-22 08:11:00,
2013-02-22 03:16:00,28.2,21.9,30.28,NNE,20,19.0,23.0,77,0.00,,,0.00,meteohub,2013-02-22 08:16:00,
2013-02-22 03:21:00,28.4,22.1,30.29,NNW,341,16.0,23.0,77,0.00,,,0.00,meteohub,2013-02-22 08:21:00,
2013-02-22 03:26:00,28.4,22.1,30.30,NNE,23,18.0,23.0,77,0.00,,,0.00,meteohub,2013-02-22 08:26:00,
2013-02-22 03:31:00,28.2,21.9,30.29,NNE,25,16.0,23.0,77,0.00,,,0.00,meteohub,2013-02-22 08:31:00,
2013-02-22 03:36:00,28.6,22.8,30.29,NNW,333,12.0,23.0,79,0.00,,,0.00,meteohub,2013-02-22 08:36:00,
2013-02-22 03:41:00,28.6,22.6,30.30,NE,39,12.0,22.0,78,0.00,,,0.00,meteohub,2013-02-22 08:41:00,
2013-02-22 03:46:00,28.6,22.3,30.30,North,11,20.0,22.0,77,0.00,,,0.00,meteohub,2013-02-22 08:46:00,
2013-02-22 03:51:00,28.6,22.6,30.31,NNE,32,16.0,23.0,78,0.00,,,0.00,meteohub,2013-02-22 08:51:00,
2013-02-22 03:56:00,28.6,22.3,30.32,NNE,23,16.0,23.0,77,0.00,,,0.00,meteohub,2013-02-22 08:56:00,
2013-02-22 04:01:00,28.6,21.9,30.33,NNE,13,16.0,22.0,76,0.00,,,0.00,meteohub,2013-02-22 09:01:00,
2013-02-22 04:06:00,28.6,22.6,30.33,North,8,18.0,22.0,78,0.00,,,0.00,meteohub,2013-02-22 09:06:00,
2013-02-22 04:11:00,28.6,22.3,30.34,NNE,21,17.0,22.0,77,0.00,,,0.00,meteohub,2013-02-22 09:11:00,
2013-02-22 04:16:00,28.6,22.3,30.35,North,359,15.0,21.0,77,0.00,,,0.00,meteohub,2013-02-22 09:16:00,
2013-02-22 04:21:00,28.6,22.3,30.35,NE,41,12.0,20.0,77,0.00,,,0.00,meteohub,2013-02-22 09:21:00,
2013-02-22 04:26:00,28.6,22.3,30.35,NNE,23,11.0,20.0,77,0.00,,,0.00,meteohub,2013-02-22 09:26:00,
2013-02-22 04:31:00,28.8,22.8,30.35,NNW,347,9.0,19.0,78,0.00,,,0.00,meteohub,2013-02-22 09:31:00,
2013-02-22 04:36:00,28.6,22.6,30.35,NNW,346,8.0,17.0,78,0.00,,,0.00,meteohub,2013-02-22 09:36:00,
2013-02-22 04:41:00,28.6,22.3,30.35,NNE,19,11.0,17.0,77,0.00,,,0.00,meteohub,2013-02-22 09:41:00,
2013-02-22 04:46:00,28.6,22.6,30.35,North,11,10.0,18.0,78,0.00,,,0.00,meteohub,2013-02-22 09:46:00,
2013-02-22 04:51:00,28.6,22.8,30.35,North,350,10.0,18.0,79,0.00,,,0.00,meteohub,2013-02-22 09:51:00,
2013-02-22 04:56:00,28.6,22.6,30.36,North,4,12.0,18.0,78,0.00,,,0.00,meteohub,2013-02-22 09:56:00,
2013-02-22 05:01:00,28.4,22.6,30.36,North,357,12.0,16.0,79,0.00,,,0.00,meteohub,2013-02-22 10:01:00,
2013-02-22 05:06:00,28.2,22.6,30.36,NNW,333,10.0,14.0,79,0.00,,,0.00,meteohub,2013-02-22 10:06:00,
2013-02-22 05:11:00,28.2,22.6,30.36,NNW,339,7.0,15.0,79,0.00,,,0.00,meteohub,2013-02-22 10:11:00,
2013-02-22 05:16:00,27.1,21.6,30.37,NW,314,10.0,15.0,79,0.00,,,0.00,meteohub,2013-02-22 10:16:00,
2013-02-22 05:24:00,27.1,21.6,30.37,North,-999,-999.0,15.0,79,0.00,,,0.00,meteohub,2013-02-22 10:24:00,
2013-02-22 06:57:00,28.8,23.4,30.39,North,-999,-999.0,-999.0,80,-99.99,,,0.00,meteohub,2013-02-22 11:57:00,
2013-02-22 07:02:00,28.8,23.4,30.40,North,-999,-999.0,-999.0,80,-99.99,,,0.00,meteohub,2013-02-22 12:02:00,
2013-02-22 07:07:00,28.9,23.5,30.39,NNE,33,13.0,-999.0,80,0.00,,,0.00,meteohub,2013-02-22 12:07:00,
2013-02-22 07:12:00,28.8,23.4,30.39,NNE,20,9.0,15.0,80,0.00,,,0.00,meteohub,2013-02-22 12:12:00,
2013-02-22 07:17:00,28.9,23.5,30.39,NE,54,15.0,16.0,80,0.00,,,0.00,meteohub,2013-02-22 12:17:00,
2013-02-22 07:22:00,28.9,23.5,30.40,NE,34,6.0,17.0,80,0.00,,,0.00,meteohub,2013-02-22 12:22:00,
2013-02-22 07:27:00,29.1,23.4,30.41,NNE,30,11.0,17.0,79,0.00,,,0.00,meteohub,2013-02-22 12:27:00,
2013-02-22 07:32:00,29.3,23.9,30.41,ENE,71,6.0,17.0,80,0.00,,,0.00,meteohub,2013-02-22 12:32:00,
2013-02-22 07:37:00,29.1,23.7,30.42,NNE,33,12.0,16.0,80,0.00,,,0.00,meteohub,2013-02-22 12:37:00,
2013-02-22 07:42:00,29.3,23.9,30.42,North,4,8.0,13.0,80,0.00,,,0.00,meteohub,2013-02-22 12:42:00,
2013-02-22 07:47:00,29.1,23.4,30.43,NNE,23,10.0,13.0,79,0.00,,,0.00,meteohub,2013-02-22 12:47:00,
2013-02-22 07:52:00,29.1,23.7,30.43,NE,54,8.0,13.0,80,0.00,,,0.00,meteohub,2013-02-22 12:52:00,
2013-02-22 07:57:00,29.3,23.9,30.43,NNE,16,11.0,13.0,80,0.00,,,0.00,meteohub,2013-02-22 12:57:00,
2013-02-22 08:02:00,29.3,23.5,30.43,NNE,15,7.0,13.0,79,0.00,,,0.00,meteohub,2013-02-22 13:02:00,
2013-02-22 08:07:00,29.5,24.1,30.43,NNE,21,9.0,13.0,80,0.00,,,0.00,meteohub,2013-02-22 13:07:00,
2013-02-22 08:12:00,29.5,24.1,30.43,NE,37,12.0,15.0,80,0.00,,,0.00,meteohub,2013-02-22 13:12:00,
2013-02-22 08:17:00,29.5,24.1,30.43,North,10,11.0,15.0,80,0.00,,,0.00,meteohub,2013-02-22 13:17:00,
2013-02-22 08:23:00,29.5,24.1,30.43,NNE,12,11.0,15.0,80,0.00,,,0.00,meteohub,2013-02-22 13:23:00,
2013-02-22 08:28:00,29.5,24.1,30.43,NNE,20,4.0,14.0,80,0.00,,,0.00,meteohub,2013-02-22 13:28:00,
2013-02-22 08:33:00,29.5,24.1,30.43,NE,47,10.0,13.0,80,0.00,,,0.00,meteohub,2013-02-22 13:33:00,
2013-02-22 08:38:00,29.5,24.1,30.43,NNE,30,11.0,13.0,80,0.00,,,0.00,meteohub,2013-02-22 13:38:00,
2013-02-22 08:43:00,29.5,23.7,30.43,NE,35,11.0,13.0,79,0.00,,,0.00,meteohub,2013-02-22 13:43:00,
2013-02-22 08:48:00,29.5,24.1,30.43,North,0,9.0,13.0,80,0.00,,,0.00,meteohub,2013-02-22 13:48:00,
2013-02-22 08:53:00,29.7,23.9,30.42,North,350,6.0,13.0,79,0.00,,,0.00,meteohub,2013-02-22 13:53:00,
2013-02-22 08:58:00,29.7,24.3,30.42,ENE,60,3.0,12.0,80,0.00,,,0.00,meteohub,2013-02-22 13:58:00,
2013-02-22 09:03:00,29.8,24.1,30.42,ENE,60,3.0,12.0,79,0.00,,,0.00,meteohub,2013-02-22 14:03:00,
2013-02-22 09:08:00,30.0,24.3,30.43,North,11,4.0,12.0,79,0.00,,,0.00,meteohub,2013-02-22 14:08:00,
2013-02-22 09:13:00,30.0,24.3,30.43,North,355,7.0,10.0,79,0.00,,,0.00,meteohub,2013-02-22 14:13:00,
2013-02-22 09:18:00,30.0,24.3,30.43,North,5,7.0,9.0,79,0.00,,,0.00,meteohub,2013-02-22 14:18:00,
2013-02-22 09:23:00,30.0,24.1,30.44,North,1,5.0,9.0,78,0.00,,,0.00,meteohub,2013-02-22 14:23:00,
2013-02-22 09:28:00,30.4,24.3,30.43,NE,46,3.0,9.0,78,0.00,,,0.00,meteohub,2013-02-22 14:28:00,
2013-02-22 09:33:00,30.6,24.8,30.43,NE,54,5.0,9.0,79,0.00,,,0.00,meteohub,2013-02-22 14:33:00,
2013-02-22 09:38:00,30.9,24.6,30.43,NNE,27,3.0,8.0,77,0.00,,,0.00,meteohub,2013-02-22 14:38:00,
2013-02-22 09:43:00,30.9,24.6,30.43,NE,36,6.0,8.0,77,0.00,,,0.00,meteohub,2013-02-22 14:43:00,
2013-02-22 09:48:00,30.9,24.8,30.43,NNW,348,6.0,9.0,78,0.00,,,0.00,meteohub,2013-02-22 14:48:00,
2013-02-22 09:53:00,30.7,24.4,30.43,NE,37,5.0,9.0,77,0.00,,,0.00,meteohub,2013-02-22 14:53:00,
2013-02-22 09:58:00,30.9,24.6,30.43,NNE,33,4.0,9.0,77,0.00,,,0.00,meteohub,2013-02-22 14:58:00,
2013-02-22 10:03:00,30.9,24.3,30.43,North,8,4.0,9.0,76,0.00,,,0.00,meteohub,2013-02-22 15:03:00,
2013-02-22 10:08:00,31.3,25.0,30.42,NE,34,3.0,10.0,77,0.00,,,0.00,meteohub,2013-02-22 15:08:00,
2013-02-22 10:13:00,31.5,25.2,30.42,North,352,4.0,10.0,77,0.00,,,0.00,meteohub,2013-02-22 15:13:00,
2013-02-22 10:18:00,31.6,25.0,30.42,NNE,26,7.0,10.0,76,0.00,,,0.00,meteohub,2013-02-22 15:18:00,
2013-02-22 10:23:00,31.8,25.2,30.41,NE,36,5.0,9.0,76,0.00,,,0.00,meteohub,2013-02-22 15:23:00,
2013-02-22 10:28:00,32.2,25.5,30.41,NE,46,5.0,9.0,76,0.00,,,0.00,meteohub,2013-02-22 15:28:00,
2013-02-22 10:33:00,32.4,25.7,30.41,ENE,57,8.0,10.0,76,0.00,,,0.00,meteohub,2013-02-22 15:33:00,
2013-02-22 10:38:00,32.5,25.2,30.40,ENE,59,5.0,10.0,74,0.00,,,0.00,meteohub,2013-02-22 15:38:00,
2013-02-22 10:43:00,32.5,25.2,30.40,NE,56,3.0,10.0,74,0.00,,,0.00,meteohub,2013-02-22 15:43:00,
2013-02-22 10:48:00,32.7,25.0,30.40,NE,48,6.0,9.0,73,0.00,,,0.00,meteohub,2013-02-22 15:48:00,
2013-02-22 10:53:00,32.7,25.0,30.40,NNE,25,4.0,9.0,73,0.00,,,0.00,meteohub,2013-02-22 15:53:00,
2013-02-22 10:58:00,32.7,25.0,30.41,NNE,15,6.0,10.0,73,0.00,,,0.00,meteohub,2013-02-22 15:58:00,
2013-02-22 11:03:00,32.9,25.5,30.41,NE,43,5.0,10.0,74,0.00,,,0.00,meteohub,2013-02-22 16:03:00,
2013-02-22 11:08:00,32.7,25.3,30.41,NE,39,2.0,10.0,74,0.00,,,0.00,meteohub,2013-02-22 16:08:00,
2013-02-22 11:13:00,33.1,26.1,30.41,NE,54,5.0,9.0,75,0.00,,,0.00,meteohub,2013-02-22 16:13:00,
2013-02-22 11:18:00,33.4,26.4,30.41,NNE,21,2.0,9.0,75,0.00,,,0.00,meteohub,2013-02-22 16:18:00,
2013-02-22 11:23:00,33.6,26.2,30.41,NE,44,4.0,9.0,74,0.00,,,0.00,meteohub,2013-02-22 16:23:00,
2013-02-22 11:28:00,33.6,26.6,30.42,NNE,23,2.0,7.0,75,0.00,,,0.00,meteohub,2013-02-22 16:28:00,
2013-02-22 11:33:00,33.6,26.6,30.42,NE,40,4.0,8.0,75,0.00,,,0.00,meteohub,2013-02-22 16:33:00,
2013-02-22 11:38:00,34.0,27.0,30.41,NNE,26,7.0,8.0,75,0.00,,,0.00,meteohub,2013-02-22 16:38:00,
2013-02-22 11:43:00,34.0,27.1,30.41,NNE,20,2.0,8.0,76,0.00,,,0.00,meteohub,2013-02-22 16:43:00,
2013-02-22 11:48:00,34.2,27.3,30.41,ENE,60,5.0,8.0,76,0.00,,,0.00,meteohub,2013-02-22 16:48:00,
2013-02-22 11:53:00,34.3,27.5,30.40,NNE,31,8.0,8.0,76,0.00,,,0.00,meteohub,2013-02-22 16:53:00,
2013-02-22 11:58:00,34.3,27.5,30.41,NNE,30,3.0,8.0,76,0.00,,,0.00,meteohub,2013-02-22 16:58:00,
2013-02-22 12:03:00,34.9,28.4,30.41,NNE,30,3.0,8.0,77,0.00,,,0.00,meteohub,2013-02-22 17:03:00,
2013-02-22 12:08:00,35.2,28.4,30.41,NNE,13,2.0,8.0,76,0.00,,,0.00,meteohub,2013-02-22 17:08:00,
2013-02-22 12:13:00,35.6,29.1,30.40,NE,46,4.0,8.0,77,0.00,,,0.00,meteohub,2013-02-22 17:13:00,
2013-02-22 12:18:00,35.8,28.6,30.40,NNE,28,4.0,7.0,75,0.00,,,0.00,meteohub,2013-02-22 17:18:00,
2013-02-22 12:23:00,35.2,28.0,30.41,NNE,14,6.0,9.0,75,0.00,,,0.00,meteohub,2013-02-22 17:23:00,
2013-02-22 12:28:00,35.1,27.9,30.41,NNE,33,3.0,9.0,75,0.00,,,0.00,meteohub,2013-02-22 17:28:00,
2013-02-22 12:33:00,35.4,28.6,30.41,NNE,32,2.0,9.0,76,0.00,,,0.00,meteohub,2013-02-22 17:33:00,
2013-02-22 12:38:00,35.8,28.6,30.41,NNE,28,4.0,9.0,75,0.00,,,0.00,meteohub,2013-02-22 17:38:00,
2013-02-22 12:43:00,36.0,28.8,30.41,NE,43,3.0,9.0,75,0.00,,,0.00,meteohub,2013-02-22 17:43:00,
2013-02-22 12:48:00,36.0,28.8,30.40,ENE,65,5.0,9.0,75,0.00,,,0.00,meteohub,2013-02-22 17:48:00,
2013-02-22 12:53:00,35.8,28.6,30.40,NNE,32,5.0,9.0,75,0.00,,,0.00,meteohub,2013-02-22 17:53:00,
2013-02-22 12:58:00,35.8,28.6,30.40,NE,43,3.0,10.0,75,0.00,,,0.00,meteohub,2013-02-22 17:58:00,
2013-02-22 13:03:00,36.0,29.1,30.40,NE,44,4.0,10.0,76,0.00,,,0.00,meteohub,2013-02-22 18:03:00,
2013-02-22 13:08:00,36.1,28.9,30.40,North,350,5.0,10.0,75,0.00,,,0.00,meteohub,2013-02-22 18:08:00,
2013-02-22 13:13:00,36.3,28.8,30.40,NNW,347,5.0,10.0,74,0.00,,,0.00,meteohub,2013-02-22 18:13:00,
2013-02-22 13:18:00,36.3,29.5,30.40,North,356,4.0,9.0,76,0.00,,,0.00,meteohub,2013-02-22 18:18:00,
2013-02-22 13:23:00,36.1,28.9,30.40,NE,54,4.0,9.0,75,0.00,,,0.00,meteohub,2013-02-22 18:23:00,
2013-02-22 13:28:00,36.1,29.3,30.40,NNE,13,4.0,8.0,76,0.00,,,0.00,meteohub,2013-02-22 18:28:00,
2013-02-22 13:33:00,36.0,28.8,30.39,NE,37,6.0,9.0,75,0.00,,,0.00,meteohub,2013-02-22 18:33:00,
2013-02-22 13:38:00,35.8,28.9,30.38,ENE,58,10.0,10.0,76,0.00,,,0.00,meteohub,2013-02-22 18:38:00,
2013-02-22 13:43:00,36.3,29.1,30.38,NE,53,6.0,11.0,75,0.00,,,0.00,meteohub,2013-02-22 18:43:00,
2013-02-22 13:48:00,36.1,28.6,30.39,NNE,23,3.0,11.0,74,0.00,,,0.00,meteohub,2013-02-22 18:48:00,
2013-02-22 13:53:00,36.9,28.8,30.39,East,82,2.0,11.0,72,0.00,,,0.00,meteohub,2013-02-22 18:53:00,
2013-02-22 13:58:00,37.6,28.8,30.37,ENE,63,3.0,9.0,70,0.00,,,0.00,meteohub,2013-02-22 18:58:00,
2013-02-22 14:03:00,37.8,28.6,30.37,ESE,113,3.0,12.0,69,0.00,,,0.00,meteohub,2013-02-22 19:03:00,
2013-02-22 14:08:00,37.8,28.2,30.37,East,86,3.0,12.0,68,0.00,,,0.00,meteohub,2013-02-22 19:08:00,
2013-02-22 14:13:00,37.8,28.2,30.37,ESE,112,5.0,12.0,68,0.00,,,0.00,meteohub,2013-02-22 19:13:00,
2013-02-22 14:18:00,37.8,28.2,30.37,ESE,115,3.0,10.0,68,0.00,,,0.00,meteohub,2013-02-22 19:18:00,
2013-02-22 14:23:00,37.8,28.6,30.38,East,96,3.0,11.0,69,0.00,,,0.00,meteohub,2013-02-22 19:23:00,
2013-02-22 14:28:00,37.6,28.0,30.37,East,82,2.0,11.0,68,0.00,,,0.00,meteohub,2013-02-22 19:28:00,
2013-02-22 14:33:00,37.4,27.9,30.38,East,97,3.0,11.0,68,0.00,,,0.00,meteohub,2013-02-22 19:33:00,
2013-02-22 14:38:00,37.4,27.9,30.37,East,80,7.0,10.0,68,0.00,,,0.00,meteohub,2013-02-22 19:38:00,
2013-02-22 14:43:00,37.2,27.7,30.38,East,88,0.0,10.0,68,0.00,,,0.00,meteohub,2013-02-22 19:43:00,
2013-02-22 14:48:00,37.2,27.7,30.38,East,86,2.0,10.0,68,0.00,,,0.00,meteohub,2013-02-22 19:48:00,
2013-02-22 14:53:00,37.2,27.7,30.38,East,101,2.0,10.0,68,0.00,,,0.00,meteohub,2013-02-22 19:53:00,
2013-02-22 14:58:00,37.4,27.5,30.38,East,97,3.0,9.0,67,0.00,,,0.00,meteohub,2013-02-22 19:58:00,
2013-02-22 15:03:00,37.2,27.7,30.38,NNE,22,2.0,9.0,68,0.00,,,0.00,meteohub,2013-02-22 20:03:00,
2013-02-22 15:08:00,37.2,27.3,30.38,ENE,76,4.0,9.0,67,0.00,,,0.00,meteohub,2013-02-22 20:08:00,
2013-02-22 15:13:00,37.2,27.7,30.38,East,94,2.0,9.0,68,0.00,,,0.00,meteohub,2013-02-22 20:13:00,
2013-02-22 15:18:00,37.2,27.3,30.38,East,86,5.0,8.0,67,0.00,,,0.00,meteohub,2013-02-22 20:18:00,
2013-02-22 15:23:00,37.2,27.7,30.37,East,83,5.0,7.0,68,0.00,,,0.00,meteohub,2013-02-22 20:23:00,
2013-02-22 15:28:00,37.2,27.7,30.37,ESE,115,6.0,8.0,68,0.00,,,0.00,meteohub,2013-02-22 20:28:00,
2013-02-22 15:33:00,37.2,27.7,30.37,ESE,120,4.0,8.0,68,0.00,,,0.00,meteohub,2013-02-22 20:33:00,
2013-02-22 15:38:00,37.0,27.5,30.38,East,101,1.0,9.0,68,0.00,,,0.00,meteohub,2013-02-22 20:38:00,
2013-02-22 15:43:00,37.0,27.9,30.38,East,96,2.0,9.0,69,0.00,,,0.00,meteohub,2013-02-22 20:43:00,
2013-02-22 15:48:00,36.9,27.7,30.38,ESE,104,1.0,8.0,69,0.00,,,0.00,meteohub,2013-02-22 20:48:00,
2013-02-22 15:53:00,36.9,27.7,30.38,ENE,67,1.0,7.0,69,0.00,,,0.00,meteohub,2013-02-22 20:53:00,
2013-02-22 15:58:00,36.9,27.7,30.37,NE,47,2.0,7.0,69,0.00,,,0.00,meteohub,2013-02-22 20:58:00,
2013-02-22 16:03:00,36.9,27.7,30.37,ESE,113,1.0,7.0,69,0.00,,,0.00,meteohub,2013-02-22 21:03:00,
2013-02-22 16:08:00,37.0,28.2,30.38,East,92,0.0,7.0,70,0.00,,,0.00,meteohub,2013-02-22 21:08:00,
2013-02-22 16:13:00,37.0,27.9,30.38,NE,51,1.0,7.0,69,0.00,,,0.00,meteohub,2013-02-22 21:13:00,
2013-02-22 16:18:00,37.0,27.9,30.38,East,82,4.0,7.0,69,0.00,,,0.00,meteohub,2013-02-22 21:18:00,
2013-02-22 16:23:00,37.0,27.9,30.37,ESE,114,1.0,5.0,69,0.00,,,0.00,meteohub,2013-02-22 21:23:00,
2013-02-22 16:28:00,37.2,28.0,30.38,East,94,1.0,5.0,69,0.00,,,0.00,meteohub,2013-02-22 21:28:00,
2013-02-22 16:33:00,37.0,27.9,30.37,SE,133,2.0,5.0,69,0.00,,,0.00,meteohub,2013-02-22 21:33:00,
2013-02-22 16:38:00,37.0,27.9,30.38,ESE,113,3.0,5.0,69,0.00,,,0.00,meteohub,2013-02-22 21:38:00,
2013-02-22 16:43:00,36.9,28.0,30.37,SE,128,1.0,6.0,70,0.00,,,0.00,meteohub,2013-02-22 21:43:00,
2013-02-22 16:48:00,36.7,28.2,30.37,SE,141,0.0,6.0,71,0.00,,,0.00,meteohub,2013-02-22 21:48:00,
2013-02-22 16:53:00,36.5,28.4,30.37,ESE,109,0.0,5.0,72,0.00,,,0.00,meteohub,2013-02-22 21:53:00,
2013-02-22 16:58:00,36.3,28.2,30.38,SE,139,1.0,5.0,72,0.00,,,0.00,meteohub,2013-02-22 21:58:00,
2013-02-22 17:03:00,36.1,28.0,30.37,SE,129,2.0,4.0,72,0.00,,,0.00,meteohub,2013-02-22 22:03:00,
2013-02-22 17:08:00,35.8,28.0,30.38,SSW,211,1.0,4.0,73,0.00,,,0.00,meteohub,2013-02-22 22:08:00,
2013-02-22 17:13:00,35.6,27.9,30.38,SE,136,2.0,5.0,73,0.00,,,0.00,meteohub,2013-02-22 22:13:00,
2013-02-22 17:18:00,35.4,28.0,30.38,SE,145,3.0,5.0,74,0.00,,,0.00,meteohub,2013-02-22 22:18:00,
2013-02-22 17:23:00,35.2,27.9,30.38,SE,135,0.0,4.0,74,0.00,,,0.00,meteohub,2013-02-22 22:23:00,
2013-02-22 17:28:00,35.2,28.0,30.38,ESE,108,2.0,4.0,75,0.00,,,0.00,meteohub,2013-02-22 22:28:00,
2013-02-22 17:33:00,35.1,27.9,30.38,East,92,1.0,4.0,75,0.00,,,0.00,meteohub,2013-02-22 22:33:00,
2013-02-22 17:38:00,35.1,28.2,30.38,SE,124,4.0,4.0,76,0.00,,,0.00,meteohub,2013-02-22 22:38:00,
2013-02-22 17:43:00,34.9,28.0,30.38,East,101,0.0,4.0,76,0.00,,,0.00,meteohub,2013-02-22 22:43:00,
2013-02-22 17:48:00,34.9,28.4,30.38,SE,143,1.0,4.0,77,0.00,,,0.00,meteohub,2013-02-22 22:48:00,
2013-02-22 17:53:00,34.9,28.4,30.38,SE,127,0.0,5.0,77,0.00,,,0.00,meteohub,2013-02-22 22:53:00,
2013-02-22 17:58:00,34.7,28.2,30.38,SE,141,2.0,5.0,77,0.00,,,0.00,meteohub,2013-02-22 22:58:00,
2013-02-22 18:03:00,34.7,28.2,30.39,SE,142,1.0,5.0,77,0.00,,,0.00,meteohub,2013-02-22 23:03:00,
2013-02-22 18:08:00,34.7,28.2,30.39,SSE,150,0.0,4.0,77,0.00,,,0.00,meteohub,2013-02-22 23:08:00,
2013-02-22 18:13:00,34.5,28.0,30.39,SE,135,0.0,4.0,77,0.00,,,0.00,meteohub,2013-02-22 23:13:00,
2013-02-22 18:18:00,34.5,28.4,30.39,East,98,0.0,4.0,78,0.00,,,0.00,meteohub,2013-02-22 23:18:00,
2013-02-22 18:23:00,34.3,28.2,30.39,SSE,148,1.0,3.0,78,0.00,,,0.00,meteohub,2013-02-22 23:23:00,
2013-02-22 18:28:00,34.3,28.2,30.40,SE,127,0.0,3.0,78,0.00,,,0.00,meteohub,2013-02-22 23:28:00,
2013-02-22 18:33:00,34.3,28.6,30.39,ESE,112,0.0,3.0,79,0.00,,,0.00,meteohub,2013-02-22 23:33:00,
2013-02-22 18:38:00,34.2,28.4,30.39,SE,129,1.0,2.0,79,0.00,,,0.00,meteohub,2013-02-22 23:38:00,
2013-02-22 18:43:00,34.2,28.4,30.39,ESE,115,1.0,3.0,79,0.00,,,0.00,meteohub,2013-02-22 23:43:00,
2013-02-22 18:49:00,34.2,28.4,30.39,SE,135,0.0,3.0,79,0.00,,,0.00,meteohub,2013-02-22 23:49:00,
2013-02-22 18:54:00,34.2,28.4,30.40,SE,130,1.0,3.0,79,0.00,,,0.00,meteohub,2013-02-22 23:54:00,
2013-02-22 18:59:00,34.2,28.4,30.40,ESE,120,0.0,2.0,79,0.00,,,0.00,meteohub,2013-02-22 23:59:00,
2013-02-22 19:04:00,34.3,28.6,30.40,SE,127,0.0,1.0,79,0.00,,,0.00,meteohub,2013-02-23 00:04:00,
2013-02-22 19:09:00,34.2,28.4,30.39,SE,139,0.0,2.0,79,0.00,,,0.00,meteohub,2013-02-23 00:09:00,
2013-02-22 19:14:00,34.2,28.4,30.39,East,89,0.0,2.0,79,0.00,,,0.00,meteohub,2013-02-23 00:14:00,
2013-02-22 19:19:00,34.2,28.4,30.39,ESE,112,0.0,2.0,79,0.00,,,0.00,meteohub,2013-02-23 00:19:00,
2013-02-22 19:24:00,34.2,28.6,30.38,ESE,115,0.0,2.0,80,0.00,,,0.00,meteohub,2013-02-23 00:24:00,
2013-02-22 19:29:00,34.0,28.4,30.38,ESE,120,0.0,1.0,80,0.00,,,0.00,meteohub,2013-02-23 00:29:00,
2013-02-22 19:34:00,34.0,28.4,30.38,SSE,153,0.0,2.0,80,0.00,,,0.00,meteohub,2013-02-23 00:34:00,
2013-02-22 19:39:00,34.0,28.4,30.38,ESE,115,0.0,2.0,80,0.00,,,0.00,meteohub,2013-02-23 00:39:00,
2013-02-22 19:44:00,34.0,28.4,30.38,ESE,115,0.0,2.0,80,0.00,,,0.00,meteohub,2013-02-23 00:44:00,
2013-02-22 19:49:00,34.0,28.4,30.38,ESE,115,0.0,2.0,80,0.00,,,0.00,meteohub,2013-02-23 00:49:00,
2013-02-22 19:54:00,34.0,28.4,30.38,ESE,115,0.0,2.0,80,0.00,,,0.00,meteohub,2013-02-23 00:54:00,
2013-02-22 19:59:00,34.0,28.4,30.38,ESE,122,0.0,1.0,80,0.00,,,0.00,meteohub,2013-02-23 00:59:00,
2013-02-22 20:04:00,34.0,28.4,30.38,SE,129,0.0,1.0,80,0.00,,,0.00,meteohub,2013-02-23 01:04:00,
2013-02-22 20:09:00,33.8,28.2,30.38,SE,129,0.0,1.0,80,0.00,,,0.00,meteohub,2013-02-23 01:09:00,
2013-02-22 20:14:00,34.0,28.4,30.38,SE,135,0.0,1.0,80,0.00,,,0.00,meteohub,2013-02-23 01:14:00,
2013-02-22 20:19:00,34.0,28.4,30.38,ESE,112,0.0,1.0,80,0.00,,,0.00,meteohub,2013-02-23 01:19:00,
2013-02-22 20:24:00,34.2,28.6,30.37,SE,128,0.0,2.0,80,0.00,,,0.00,meteohub,2013-02-23 01:24:00,
2013-02-22 20:29:00,34.2,28.6,30.38,SSE,158,0.0,3.0,80,0.00,,,0.00,meteohub,2013-02-23 01:29:00,
2013-02-22 20:34:00,34.2,28.6,30.38,SE,124,0.0,3.0,80,0.00,,,0.00,meteohub,2013-02-23 01:34:00,
2013-02-22 20:39:00,34.2,28.6,30.38,ESE,110,1.0,3.0,80,0.00,,,0.00,meteohub,2013-02-23 01:39:00,
2013-02-22 20:44:00,34.2,28.9,30.38,ESE,108,0.0,2.0,81,0.00,,,0.00,meteohub,2013-02-23 01:44:00,
2013-02-22 20:49:00,34.2,28.6,30.38,SE,135,1.0,2.0,80,0.00,,,0.00,meteohub,2013-02-23 01:49:00,
2013-02-22 20:54:00,34.2,28.9,30.38,SE,133,0.0,1.0,81,0.00,,,0.00,meteohub,2013-02-23 01:54:00,
2013-02-22 20:59:00,34.2,28.9,30.38,East,94,0.0,1.0,81,0.00,,,0.00,meteohub,2013-02-23 01:59:00,
2013-02-22 21:04:00,34.2,28.9,30.38,ESE,121,0.0,1.0,81,0.00,,,0.00,meteohub,2013-02-23 02:04:00,
2013-02-22 21:09:00,34.2,28.9,30.38,ESE,121,0.0,2.0,81,0.00,,,0.00,meteohub,2013-02-23 02:09:00,
2013-02-22 21:14:00,34.2,28.9,30.38,ESE,120,0.0,2.0,81,0.00,,,0.00,meteohub,2013-02-23 02:14:00,
2013-02-22 21:19:00,34.2,28.9,30.38,ESE,108,0.0,2.0,81,0.00,,,0.00,meteohub,2013-02-23 02:19:00,
2013-02-22 21:24:00,34.2,28.9,30.38,SE,126,0.0,1.0,81,0.00,,,0.00,meteohub,2013-02-23 02:24:00,
2013-02-22 21:29:00,34.2,28.9,30.38,ESE,106,0.0,1.0,81,0.00,,,0.00,meteohub,2013-02-23 02:29:00,
2013-02-22 21:34:00,34.2,28.9,30.38,East,94,0.0,3.0,81,0.00,,,0.00,meteohub,2013-02-23 02:34:00,
2013-02-22 21:39:00,34.2,28.9,30.38,ESE,103,0.0,3.0,81,0.00,,,0.00,meteohub,2013-02-23 02:39:00,
2013-02-22 21:44:00,34.2,28.9,30.38,SE,128,1.0,3.0,81,0.00,,,0.00,meteohub,2013-02-23 02:44:00,
2013-02-22 21:49:00,34.0,28.8,30.38,ESE,120,0.0,2.0,81,0.00,,,0.00,meteohub,2013-02-23 02:49:00,
2013-02-22 21:54:00,34.0,28.8,30.38,ESE,105,1.0,2.0,81,0.00,,,0.00,meteohub,2013-02-23 02:54:00,
2013-02-22 21:59:00,34.2,28.9,30.38,ESE,117,0.0,2.0,81,0.00,,,0.00,meteohub,2013-02-23 02:59:00,
2013-02-22 22:04:00,34.2,28.9,30.38,ESE,117,0.0,2.0,81,0.00,,,0.00,meteohub,2013-02-23 03:04:00,
2013-02-22 22:09:00,34.2,28.9,30.37,East,89,0.0,2.0,81,0.00,,,0.00,meteohub,2013-02-23 03:09:00,
2013-02-22 22:15:00,34.2,28.9,30.37,ESE,110,2.0,2.0,81,0.00,,,0.00,meteohub,2013-02-23 03:15:00,
2013-02-22 22:20:00,34.2,28.9,30.37,East,90,2.0,2.0,81,0.00,,,0.00,meteohub,2013-02-23 03:20:00,
2013-02-22 22:25:00,34.2,28.9,30.37,ESE,117,1.0,5.0,81,0.00,,,0.00,meteohub,2013-02-23 03:25:00,
2013-02-22 22:30:00,34.2,28.9,30.36,ESE,105,2.0,5.0,81,0.00,,,0.00,meteohub,2013-02-23 03:30:00,
2013-02-22 22:35:00,34.3,29.1,30.36,ESE,102,1.0,5.0,81,0.00,,,0.00,meteohub,2013-02-23 03:35:00,
2013-02-22 22:40:00,34.3,29.1,30.36,ESE,117,0.0,4.0,81,0.00,,,0.00,meteohub,2013-02-23 03:40:00,
2013-02-22 22:45:00,34.3,29.1,30.36,ESE,113,0.0,4.0,81,0.00,,,0.00,meteohub,2013-02-23 03:45:00,
2013-02-22 22:50:00,34.3,29.1,30.35,ESE,116,1.0,5.0,81,0.00,,,0.00,meteohub,2013-02-23 03:50:00,
2013-02-22 22:55:00,34.2,28.9,30.35,East,82,2.0,6.0,81,0.00,,,0.00,meteohub,2013-02-23 03:55:00,
2013-02-22 23:00:00,34.2,28.9,30.36,ESE,115,0.0,6.0,81,0.00,,,0.00,meteohub,2013-02-23 04:00:00,
2013-02-22 23:05:00,34.0,28.8,30.36,SE,141,0.0,6.0,81,0.00,,,0.00,meteohub,2013-02-23 04:05:00,
2013-02-22 23:10:00,33.8,28.6,30.36,SSE,155,1.0,5.0,81,0.00,,,0.00,meteohub,2013-02-23 04:10:00,
2013-02-22 23:15:00,33.6,28.4,30.36,ESE,120,0.0,5.0,81,0.00,,,0.00,meteohub,2013-02-23 04:15:00,
2013-02-22 23:20:00,33.4,28.6,30.35,East,101,2.0,5.0,82,0.00,,,0.00,meteohub,2013-02-23 04:20:00,
2013-02-22 23:25:00,33.4,28.6,30.35,ESE,108,3.0,4.0,82,0.00,,,0.00,meteohub,2013-02-23 04:25:00,
2013-02-22 23:30:00,33.4,28.6,30.34,East,96,1.0,6.0,82,0.00,,,0.00,meteohub,2013-02-23 04:30:00,
2013-02-22 23:35:00,33.4,28.8,30.34,ESE,105,0.0,6.0,83,0.00,,,0.00,meteohub,2013-02-23 04:35:00,
2013-02-22 23:40:00,33.3,28.6,30.34,East,101,2.0,8.0,83,0.00,,,0.00,meteohub,2013-02-23 04:40:00,
2013-02-22 23:45:00,33.3,28.6,30.34,SE,142,3.0,8.0,83,0.00,,,0.00,meteohub,2013-02-23 04:45:00,
2013-02-22 23:50:00,33.4,28.8,30.34,SE,132,1.0,8.0,83,0.00,,,0.00,meteohub,2013-02-23 04:50:00,
2013-02-22 23:55:00,33.4,28.8,30.34,ESE,113,0.0,7.0,83,0.00,,,0.00,meteohub,2013-02-23 04:55:00,